| time (UTC) | temp C | wind direction | speed KPH | gust KPH | rain 1hr cm | rain 24hr cm | rain mn cm | humidity % | barometer mb |
| 20260507214516 | 13 | 126 | 3.2 | 6.4 | 0.00 | 0.00 | 0.00 | 80 | 1015.0 |
| 20260507213538 | 13 | 0.0 | 0.0 | 0.00 | 0.00 | 0.00 | 78 | 1015.1 | |
| 20260507212517 | 13 | 133 | 0.0 | 1.6 | 0.00 | 0.00 | 0.00 | 77 | 1015.0 |
| 20260507211517 | 13 | 106 | 0.0 | 1.6 | 0.00 | 0.00 | 0.00 | 77 | 1015.0 |
| 20260507210518 | 13 | 126 | 3.2 | 12.9 | 0.00 | 0.00 | 0.00 | 77 | 1014.9 |
| 20260507205518 | 14 | 0.0 | 0.0 | 0.00 | 0.00 | 0.00 | 76 | 1015.0 | |
| 20260507204517 | 14 | 118 | 3.2 | 4.8 | 0.00 | 0.00 | 0.00 | 75 | 1014.8 |
| 20260507203519 | 15 | 127 | 3.2 | 12.9 | 0.00 | 0.00 | 0.00 | 75 | 1014.7 |
| 20260507202518 | 15 | 132 | 0.0 | 1.6 | 0.00 | 0.00 | 0.00 | 74 | 1014.8 |
| 20260507201537 | 15 | 120 | 3.2 | 9.7 | 0.00 | 0.00 | 0.00 | 73 | 1014.7 |
| 20260507200517 | 15 | 145 | 0.0 | 1.6 | 0.00 | 0.00 | 0.00 | 73 | 1014.7 |
| 20260507195517 | 15 | 110 | 3.2 | 11.3 | 0.00 | 0.00 | 0.00 | 72 | 1014.8 |
| 20260507194517 | 16 | 105 | 1.6 | 6.4 | 0.00 | 0.00 | 0.00 | 72 | 1014.8 |
| 20260507193517 | 16 | 127 | 0.0 | 3.2 | 0.00 | 0.00 | 0.00 | 72 | 1014.9 |
| 20260507192517 | 16 | 0.0 | 0.0 | 0.00 | 0.00 | 0.00 | 71 | 1014.8 | |
| 20260507191518 | 16 | 128 | 0.0 | 3.2 | 0.00 | 0.00 | 0.00 | 71 | 1014.6 |
| 20260507190517 | 16 | 121 | 3.2 | 14.5 | 0.00 | 0.00 | 0.00 | 71 | 1014.6 |
| 20260507185559 | 16 | 0.0 | 0.0 | 0.00 | 0.00 | 0.00 | 69 | 1014.6 | |
| 20260507184516 | 17 | 137 | 0.0 | 4.8 | 0.00 | 0.00 | 0.00 | 68 | 1014.6 |
| 20260507183517 | 17 | 116 | 1.6 | 6.4 | 0.00 | 0.00 | 0.00 | 67 | 1014.5 |
| 20260507182536 | 17 | 0.0 | 0.0 | 0.00 | 0.00 | 0.00 | 66 | 1014.5 | |
| 20260507181517 | 18 | 0.0 | 0.0 | 0.00 | 0.00 | 0.00 | 64 | 1014.4 | |
| 20260507180519 | 19 | 133 | 1.6 | 6.4 | 0.00 | 0.00 | 0.00 | 63 | 1014.2 |
| 20260507175516 | 19 | 108 | 0.0 | 1.6 | 0.00 | 0.00 | 0.00 | 62 | 1014.1 |
| 20260507174517 | 20 | 128 | 1.6 | 6.4 | 0.00 | 0.00 | 0.00 | 61 | 1014.1 |
| 20260507173516 | 20 | 133 | 0.0 | 4.8 | 0.00 | 0.00 | 0.00 | 60 | 1014.0 |
| 20260507172519 | 20 | 123 | 3.2 | 12.9 | 0.00 | 0.00 | 0.00 | 59 | 1013.9 |
| 20260507171516 | 20 | 129 | 1.6 | 9.7 | 0.00 | 0.00 | 0.00 | 57 | 1013.8 |
| 20260507170517 | 21 | 125 | 3.2 | 8.0 | 0.00 | 0.00 | 0.00 | 55 | 1013.7 |
| 20260507165519 | 21 | 146 | 4.8 | 12.9 | 0.00 | 0.00 | 0.00 | 52 | 1013.6 |
| 20260507164536 | 21 | 155 | 6.4 | 19.3 | 0.00 | 0.00 | 0.00 | 53 | 1013.7 |
| 20260507163520 | 22 | 164 | 3.2 | 11.3 | 0.00 | 0.00 | 0.00 | 53 | 1013.7 |
| 20260507162517 | 22 | 156 | 4.8 | 11.3 | 0.00 | 0.00 | 0.00 | 51 | 1013.5 |
| 20260507161517 | 22 | 151 | 3.2 | 12.9 | 0.00 | 0.00 | 0.00 | 52 | 1013.5 |
| 20260507160519 | 22 | 130 | 6.4 | 16.1 | 0.00 | 0.00 | 0.00 | 51 | 1013.5 |
| 20260507155557 | 23 | 159 | 8.0 | 16.1 | 0.00 | 0.00 | 0.00 | 50 | 1013.5 |
| 20260507154518 | 23 | 138 | 4.8 | 11.3 | 0.00 | 0.00 | 0.00 | 49 | 1013.5 |
| 20260507153517 | 23 | 159 | 8.0 | 17.7 | 0.00 | 0.00 | 0.00 | 48 | 1013.6 |
| 20260507152518 | 23 | 117 | 11.3 | 17.7 | 0.00 | 0.00 | 0.00 | 47 | 1013.5 |
| 20260507151517 | 23 | 148 | 9.7 | 20.9 | 0.00 | 0.00 | 0.00 | 47 | 1013.6 |
| 20260507150517 | 23 | 159 | 11.3 | 25.7 | 0.00 | 0.00 | 0.00 | 46 | 1013.5 |
| 20260507145537 | 23 | 141 | 14.5 | 22.5 | 0.00 | 0.00 | 0.00 | 46 | 1013.5 |
| 20260507144518 | 24 | 138 | 11.3 | 20.9 | 0.00 | 0.00 | 0.00 | 46 | 1013.6 |
| 20260507143517 | 23 | 122 | 9.7 | 25.7 | 0.00 | 0.00 | 0.00 | 45 | 1013.7 |
| 20260507142517 | 23 | 138 | 8.0 | 19.3 | 0.00 | 0.00 | 0.00 | 44 | 1013.8 |
| 20260507141518 | 24 | 131 | 6.4 | 16.1 | 0.00 | 0.00 | 0.00 | 43 | 1013.8 |
| 20260507140517 | 24 | 161 | 8.0 | 16.1 | 0.00 | 0.00 | 0.00 | 43 | 1013.9 |
| 20260507135539 | 24 | 152 | 9.7 | 17.7 | 0.00 | 0.00 | 0.00 | 42 | 1013.9 |
| 20260507134537 | 24 | 143 | 9.7 | 19.3 | 0.00 | 0.00 | 0.00 | 41 | 1013.9 |
| 20260507133518 | 25 | 180 | 9.7 | 19.3 | 0.00 | 0.00 | 0.00 | 42 | 1013.9 |
| 20260507132520 | 25 | 155 | 8.0 | 19.3 | 0.00 | 0.00 | 0.00 | 41 | 1013.9 |
| 20260507131517 | 25 | 153 | 8.0 | 17.7 | 0.00 | 0.00 | 0.00 | 41 | 1013.9 |
| 20260507130558 | 25 | 154 | 8.0 | 17.7 | 0.00 | 0.00 | 0.00 | 41 | 1014.0 |
| 20260507125519 | 24 | 153 | 11.3 | 24.1 | 0.00 | 0.00 | 0.00 | 40 | 1014.1 |
| 20260507124519 | 24 | 151 | 6.4 | 14.5 | 0.00 | 0.00 | 0.00 | 41 | 1014.3 |
| 20260507123517 | 24 | 156 | 11.3 | 19.3 | 0.00 | 0.00 | 0.00 | 41 | 1014.4 |
| 20260507122519 | 24 | 137 | 4.8 | 12.9 | 0.00 | 0.00 | 0.00 | 41 | 1014.6 |
| 20260507121518 | 24 | 158 | 8.0 | 22.5 | 0.00 | 0.00 | 0.00 | 41 | 1014.6 |
| 20260507120518 | 24 | 173 | 11.3 | 24.1 | 0.00 | 0.00 | 0.00 | 41 | 1014.7 |
| 20260507115536 | 25 | 147 | 8.0 | 16.1 | 0.00 | 0.00 | 0.00 | 40 | 1014.8 |
| 20260507114517 | 24 | 154 | 8.0 | 19.3 | 0.00 | 0.00 | 0.00 | 41 | 1014.8 |
| 20260507113519 | 24 | 142 | 4.8 | 14.5 | 0.00 | 0.00 | 0.00 | 41 | 1014.9 |
| 20260507112519 | 23 | 153 | 9.7 | 19.3 | 0.00 | 0.00 | 0.00 | 40 | 1015.1 |
| 20260507111538 | 24 | 152 | 9.7 | 17.7 | 0.00 | 0.00 | 0.00 | 40 | 1015.1 |
| 20260507110557 | 24 | 151 | 8.0 | 25.7 | 0.00 | 0.00 | 0.00 | 40 | 1015.0 |
| 20260507105519 | 23 | 135 | 8.0 | 16.1 | 0.00 | 0.00 | 0.00 | 39 | 1015.1 |
| 20260507104518 | 23 | 153 | 9.7 | 17.7 | 0.00 | 0.00 | 0.00 | 38 | 1015.1 |
| 20260507103518 | 23 | 162 | 12.9 | 20.9 | 0.00 | 0.00 | 0.00 | 39 | 1015.2 |
| 20260507102518 | 23 | 157 | 9.7 | 19.3 | 0.00 | 0.00 | 0.00 | 39 | 1015.3 |
| 20260507101557 | 23 | 149 | 4.8 | 11.3 | 0.00 | 0.00 | 0.00 | 40 | 1015.3 |
| 20260507100518 | 23 | 147 | 9.7 | 20.9 | 0.00 | 0.00 | 0.00 | 41 | 1015.4 |
| 20260507095518 | 23 | 129 | 6.4 | 17.7 | 0.00 | 0.00 | 0.00 | 41 | 1015.4 |
| 20260507094518 | 23 | 154 | 6.4 | 16.1 | 0.00 | 0.00 | 0.00 | 40 | 1015.4 |
| 20260507093518 | 23 | 173 | 11.3 | 22.5 | 0.00 | 0.00 | 0.00 | 39 | 1015.5 |
| 20260507092538 | 22 | 151 | 9.7 | 20.9 | 0.00 | 0.00 | 0.00 | 40 | 1015.6 |
| 20260507091538 | 22 | 136 | 9.7 | 25.7 | 0.00 | 0.00 | 0.00 | 40 | 1015.6 |
| 20260507090519 | 22 | 136 | 6.4 | 17.7 | 0.00 | 0.00 | 0.00 | 40 | 1015.6 |
| 20260507085538 | 22 | 139 | 8.0 | 17.7 | 0.00 | 0.00 | 0.00 | 40 | 1015.6 |
| 20260507084519 | 22 | 149 | 6.4 | 14.5 | 0.00 | 0.00 | 0.00 | 41 | 1015.6 |
| 20260507083518 | 22 | 133 | 8.0 | 20.9 | 0.00 | 0.00 | 0.00 | 40 | 1015.6 |
| 20260507082518 | 22 | 135 | 11.3 | 20.9 | 0.00 | 0.00 | 0.00 | 41 | 1015.4 |
| 20260507081519 | 22 | 163 | 8.0 | 17.7 | 0.00 | 0.00 | 0.00 | 42 | 1015.6 |
| 20260507080538 | 21 | 130 | 11.3 | 22.5 | 0.00 | 0.00 | 0.00 | 42 | 1015.6 |
| 20260507075518 | 21 | 135 | 9.7 | 24.1 | 0.00 | 0.00 | 0.00 | 43 | 1015.7 |
| 20260507074519 | 21 | 148 | 8.0 | 16.1 | 0.00 | 0.00 | 0.00 | 43 | 1015.8 |
| 20260507073519 | 21 | 140 | 9.7 | 17.7 | 0.00 | 0.00 | 0.00 | 44 | 1015.9 |
| 20260507072519 | 20 | 151 | 9.7 | 22.5 | 0.00 | 0.00 | 0.00 | 45 | 1015.9 |
| 20260507071519 | 20 | 122 | 6.4 | 16.1 | 0.00 | 0.00 | 0.00 | 51 | 1015.8 |
| 20260507070539 | 20 | 137 | 4.8 | 11.3 | 0.00 | 0.00 | 0.00 | 53 | 1015.9 |
| 20260507065518 | 19 | 134 | 4.8 | 11.3 | 0.00 | 0.00 | 0.00 | 53 | 1015.9 |
| 20260507064518 | 18 | 133 | 4.8 | 9.7 | 0.00 | 0.00 | 0.00 | 53 | 1015.9 |
| 20260507063538 | 18 | 120 | 4.8 | 11.3 | 0.00 | 0.00 | 0.00 | 54 | 1015.9 |
| 20260507062539 | 18 | 136 | 4.8 | 11.3 | 0.00 | 0.00 | 0.00 | 54 | 1016.0 |
| 20260507061518 | 17 | 147 | 3.2 | 6.4 | 0.00 | 0.00 | 0.00 | 56 | 1016.0 |
| 20260507060519 | 17 | 122 | 3.2 | 8.0 | 0.00 | 0.00 | 0.00 | 58 | 1016.0 |
| 20260507055518 | 17 | 141 | 4.8 | 9.7 | 0.00 | 0.00 | 0.00 | 57 | 1016.1 |
| 20260507054537 | 16 | 130 | 3.2 | 4.8 | 0.00 | 0.00 | 0.00 | 60 | 1016.1 |
| 20260507053519 | 16 | 128 | 3.2 | 4.8 | 0.00 | 0.00 | 0.00 | 60 | 1016.1 |
| 20260507052520 | 16 | 126 | 1.6 | 3.2 | 0.00 | 0.00 | 0.00 | 62 | 1016.2 |
| 20260507051518 | 15 | 120 | 3.2 | 4.8 | 0.00 | 0.00 | 0.00 | 62 | 1016.0 |
| 20260507050539 | 15 | 125 | 3.2 | 4.8 | 0.00 | 0.00 | 0.00 | 62 | 1016.0 |
| 20260507045519 | 15 | 137 | 1.6 | 3.2 | 0.00 | 0.00 | 0.00 | 63 | 1016.0 |
| 20260507044519 | 14 | 129 | 1.6 | 3.2 | 0.00 | 0.00 | 0.00 | 65 | 1015.9 |
| 20260507043518 | 13 | 125 | 1.6 | 4.8 | 0.00 | 0.00 | 0.00 | 66 | 1015.8 |
| 20260507042523 | 13 | 118 | 1.6 | 4.8 | 0.00 | 0.00 | 0.00 | 65 | 1015.7 |
| 20260507041540 | 13 | 120 | 1.6 | 4.8 | 0.00 | 0.00 | 0.00 | 66 | 1015.6 |
| 20260507040541 | 12 | 113 | 1.6 | 3.2 | 0.00 | 0.00 | 0.00 | 67 | 1015.7 |
| 20260507035518 | 12 | 114 | 1.6 | 3.2 | 0.00 | 0.00 | 0.00 | 67 | 1015.6 |
| 20260507034541 | 12 | 104 | 1.6 | 3.2 | 0.00 | 0.00 | 0.00 | 67 | 1015.6 |
| 20260507033525 | 12 | 110 | 3.2 | 3.2 | 0.00 | 0.00 | 0.00 | 66 | 1015.6 |
| 20260507032519 | 12 | 110 | 1.6 | 6.4 | 0.00 | 0.00 | 0.00 | 65 | 1015.5 |
| 20260507031519 | 12 | 111 | 3.2 | 4.8 | 0.00 | 0.00 | 0.00 | 63 | 1015.5 |
| 20260507030521 | 13 | 119 | 1.6 | 3.2 | 0.00 | 0.00 | 0.00 | 60 | 1015.4 |
| 20260507025539 | 13 | 116 | 0.0 | 3.2 | 0.00 | 0.00 | 0.00 | 60 | 1015.4 |
| 20260507024519 | 13 | 153 | 1.6 | 3.2 | 0.00 | 0.00 | 0.00 | 59 | 1015.3 |
| 20260507023518 | 13 | 150 | 3.2 | 4.8 | 0.00 | 0.00 | 0.00 | 58 | 1015.2 |
| 20260507022518 | 13 | 157 | 1.6 | 3.2 | 0.00 | 0.00 | 0.00 | 57 | 1015.2 |
| 20260507021519 | 13 | 133 | 0.0 | 1.6 | 0.00 | 0.00 | 0.00 | 57 | 1015.2 |
| 20260507020539 | 13 | 160 | 1.6 | 3.2 | 0.00 | 0.00 | 0.00 | 57 | 1015.2 |
| 20260507015518 | 14 | 165 | 1.6 | 3.2 | 0.00 | 0.00 | 0.00 | 56 | 1015.1 |
| 20260507014539 | 14 | 174 | 1.6 | 3.2 | 0.00 | 0.00 | 0.00 | 56 | 1015.1 |
| 20260507013520 | 14 | 170 | 3.2 | 4.8 | 0.00 | 0.00 | 0.00 | 56 | 1015.1 |
| 20260507012518 | 14 | 171 | 3.2 | 9.7 | 0.00 | 0.00 | 0.00 | 56 | 1015.1 |
| 20260507011538 | 14 | 160 | 3.2 | 9.7 | 0.00 | 0.00 | 0.00 | 57 | 1015.1 |
| 20260507010518 | 14 | 147 | 3.2 | 3.2 | 0.00 | 0.00 | 0.00 | 57 | 1015.1 |
| 20260507005558 | 14 | 139 | 1.6 | 3.2 | 0.00 | 0.00 | 0.00 | 57 | 1015.2 |
| 20260507004524 | 15 | 153 | 3.2 | 4.8 | 0.00 | 0.00 | 0.00 | 56 | 1015.1 |
| 20260507003518 | 15 | 154 | 3.2 | 11.3 | 0.00 | 0.00 | 0.00 | 55 | 1015.1 |
| 20260507002520 | 15 | 157 | 3.2 | 8.0 | 0.00 | 0.00 | 0.00 | 54 | 1015.1 |
| 20260507001519 | 15 | 179 | 4.8 | 9.7 | 0.00 | 0.00 | 0.00 | 54 | 1015.1 |
| 20260507000519 | 15 | 174 | 4.8 | 9.7 | 0.00 | 0.00 | 0.00 | 54 | 1015.1 |
| 20260506235519 | 15 | 159 | 6.4 | 14.5 | 0.00 | 0.00 | 0.00 | 53 | 1015.1 |
| 20260506234520 | 15 | 162 | 6.4 | 14.5 | 0.00 | 0.00 | 0.00 | 53 | 1015.1 |
| 20260506233518 | 15 | 169 | 6.4 | 14.5 | 0.00 | 0.00 | 0.00 | 54 | 1015.1 |
| 20260506232518 | 16 | 167 | 8.0 | 19.3 | 0.00 | 0.00 | 0.00 | 54 | 1015.0 |
| 20260506231519 | 16 | 157 | 6.4 | 16.1 | 0.00 | 0.00 | 0.00 | 54 | 1015.1 |
| 20260506230538 | 16 | 165 | 8.0 | 19.3 | 0.00 | 0.00 | 0.00 | 55 | 1015.1 |
| 20260506225517 | 16 | 174 | 9.7 | 22.5 | 0.00 | 0.00 | 0.00 | 56 | 1015.0 |
| 20260506224519 | 16 | 165 | 8.0 | 12.9 | 0.00 | 0.00 | 0.00 | 57 | 1015.0 |
| 20260506223520 | 16 | 168 | 9.7 | 20.9 | 0.00 | 0.00 | 0.00 | 58 | 1015.1 |
| 20260506222518 | 16 | 172 | 9.7 | 17.7 | 0.00 | 0.00 | 0.00 | 58 | 1015.1 |
| 20260506221518 | 16 | 168 | 11.3 | 22.5 | 0.00 | 0.00 | 0.00 | 59 | 1015.1 |
| 20260506220518 | 16 | 178 | 11.3 | 22.5 | 0.00 | 0.00 | 0.00 | 59 | 1015.0 |
| 20260506215538 | 16 | 169 | 11.3 | 24.1 | 0.00 | 0.00 | 0.00 | 59 | 1014.9 |